Аэропорт
Звартноц (UDYZ)

 UDYZ / EVN
ЗЦ Ростов-на-Дону
Ереван (UDDD)
Ереван (UDDD)
 40.14730, 44.39590  / 2838 ft

 UDYZ 161630Z 27008KT 9999 FEW046 04/M05 Q1015 R09/010070 NOSIG
 UDYZ 160500Z 1606/1706 16006KT 6000 FEW040 SCT100 TEMPO 1618/1706 2000 BR
Zvartnots AIP (Eurocontrol 2018), Zvartnots AIP (Eurocontrol 2018, no tables)
Название сценария Тип сценария Flight Simulator 9 Flight Simulator X Prepar3D v2 Prepar3D v3 Prepar3D v4 xPlane
Mega Scenery Zvartnots - Armenia 2008 бесплатный
Mega Zvartnots UDYZ [FSX] - v.2 бесплатный
UDYZ Zvartnots (Yerevan) бесплатный

Международный аэропорт Звартно́ц (арм. Զվարթնոց Միջազգային Օդանավակայան; IATA: EVN, ICAO: UDYZ) — международный аэропорт Еревана, столицы Армении. Расположен на западе города на территории района Малатия-Себастия, недалеко от города Звартноц, 12 км на запад от Еревана. Аэропорт Звартноц является главным международным транспортным узлом Армении и самым загруженным аэропортом страны.



2019 © VATRUS division (Privacy Policy)